createdAt,value
2017-11-14T00:00:19.425Z,50.00
2017-11-14T00:02:46.902Z,48.37
2017-11-14T00:05:14.386Z,36.23
2017-11-14T00:07:41.842Z,42.10
2017-11-14T00:10:09.310Z,39.90
2017-11-14T00:12:36.766Z,36.23
2017-11-14T00:15:04.998Z,33.23
2017-11-14T00:17:32.456Z,38.67
2017-11-14T00:19:59.942Z,38.87
2017-11-14T00:22:27.420Z,39.27
2017-11-14T00:24:55.670Z,36.73
2017-11-14T00:27:23.146Z,37.77
2017-11-14T00:29:50.615Z,38.20
2017-11-14T00:32:18.097Z,38.20
2017-11-14T00:34:45.545Z,38.40
2017-11-14T00:37:13.793Z,37.27
2017-11-14T00:39:41.271Z,38.57
2017-11-14T00:42:08.884Z,36.77
2017-11-14T00:44:36.415Z,40.00
2017-11-14T00:47:03.877Z,37.33
2017-11-14T00:49:32.124Z,40.30
2017-11-14T00:51:59.611Z,39.07
2017-11-14T00:54:27.070Z,40.87
2017-11-14T00:56:54.577Z,38.58
2017-11-14T00:59:22.131Z,37.50
2017-11-14T01:01:49.623Z,48.05
2017-11-14T01:04:17.137Z,45.20
2017-11-14T01:06:44.812Z,49.47
2017-11-14T01:09:12.286Z,42.60
2017-11-14T01:11:39.781Z,44.50
2017-11-14T01:14:07.254Z,43.87
2017-11-14T01:16:34.733Z,42.05
2017-11-14T01:19:02.217Z,47.03
2017-11-14T01:21:29.744Z,43.75
2017-11-14T01:23:57.221Z,49.65
2017-11-14T01:26:24.719Z,45.78
2017-11-14T01:28:52.945Z,52.75
2017-11-14T01:31:20.432Z,46.92
2017-11-14T01:33:47.922Z,49.38
2017-11-14T01:36:15.461Z,51.55
2017-11-14T01:38:43.807Z,52.55
2017-11-14T01:41:11.280Z,58.28
2017-11-14T01:43:38.792Z,44.78
2017-11-14T01:46:06.270Z,46.72
2017-11-14T01:48:33.780Z,55.12
2017-11-14T01:51:01.257Z,53.53
2017-11-14T01:53:28.742Z,44.65
2017-11-14T01:55:56.214Z,47.60
2017-11-14T01:58:23.686Z,48.55
2017-11-14T02:00:51.211Z,45.33
2017-11-14T02:03:19.458Z,45.90
2017-11-14T02:05:46.942Z,45.20
2017-11-14T02:08:14.414Z,42.70
2017-11-14T02:10:41.890Z,49.25
2017-11-14T02:13:09.372Z,46.00
2017-11-14T02:15:36.874Z,49.25
2017-11-14T02:18:04.366Z,47.45
2017-11-14T02:20:31.844Z,51.45
2017-11-14T02:22:59.319Z,52.25
2017-11-14T02:25:26.794Z,52.22
2017-11-14T02:27:55.029Z,47.67
2017-11-14T02:30:23.314Z,55.00
2017-11-14T02:32:50.787Z,52.85
2017-11-14T02:35:18.275Z,53.87
2017-11-14T02:37:45.749Z,55.55
2017-11-14T02:40:13.381Z,49.13
2017-11-14T02:42:40.839Z,58.70
2017-11-14T02:45:08.388Z,56.58
2017-11-14T02:47:35.863Z,56.03
2017-11-14T02:50:03.318Z,66.90
2017-11-14T02:52:31.618Z,57.28
2017-11-14T02:54:59.084Z,58.13
2017-11-14T02:57:27.331Z,68.18
2017-11-14T02:59:54.787Z,60.85
2017-11-14T03:02:23.057Z,56.28
2017-11-14T03:04:50.626Z,55.95
2017-11-14T03:07:18.138Z,64.65
2017-11-14T03:09:45.612Z,76.00
2017-11-14T03:12:13.092Z,71.22
2017-11-14T03:14:40.661Z,68.60
2017-11-14T03:17:08.153Z,57.25
2017-11-14T03:19:35.692Z,59.78
2017-11-14T03:22:03.186Z,65.07
2017-11-14T03:24:30.652Z,69.30
2017-11-14T03:26:58.162Z,63.70
2017-11-14T03:29:25.634Z,61.47
2017-11-14T03:31:53.306Z,62.90
2017-11-14T03:34:20.899Z,61.05
2017-11-14T03:36:48.379Z,61.08
2017-11-14T03:39:16.668Z,64.12
2017-11-14T03:41:44.156Z,61.03
2017-11-14T03:44:12.395Z,83.20
2017-11-14T03:46:39.899Z,89.43
2017-11-14T03:49:07.376Z,95.53
2017-11-14T03:51:34.860Z,87.40
2017-11-14T03:54:02.326Z,89.47
2017-11-14T03:56:29.804Z,80.47
2017-11-14T03:58:57.283Z,83.70
2017-11-14T04:01:24.748Z,73.20
2017-11-14T04:03:52.231Z,84.75
2017-11-14T04:06:19.707Z,85.82
2017-11-14T04:08:47.200Z,71.07
2017-11-14T04:11:14.698Z,72.05
2017-11-14T04:13:42.243Z,70.37
2017-11-14T04:16:09.743Z,69.90
2017-11-14T04:18:37.220Z,72.93
2017-11-14T04:21:04.700Z,77.03
2017-11-14T04:23:32.235Z,71.72
2017-11-14T04:25:59.710Z,60.80
2017-11-14T04:28:27.191Z,56.00
2017-11-14T04:30:54.663Z,68.47
2017-11-14T04:33:22.338Z,65.65
2017-11-14T04:35:49.809Z,68.30
2017-11-14T04:38:17.346Z,74.00
2017-11-14T04:40:44.946Z,58.78
2017-11-14T04:43:12.416Z,58.53
2017-11-14T04:45:40.839Z,60.12
2017-11-14T04:48:09.089Z,64.78
2017-11-14T04:50:36.560Z,67.50
2017-11-14T04:53:04.147Z,66.65
2017-11-14T04:55:31.629Z,67.55
2017-11-14T04:57:59.158Z,69.35
2017-11-14T05:00:27.421Z,57.88
2017-11-14T05:02:54.904Z,73.95
2017-11-14T05:05:22.394Z,75.35
2017-11-14T05:07:49.861Z,74.35
2017-11-14T05:10:17.360Z,68.45
2017-11-14T05:12:44.844Z,61.40
2017-11-14T05:15:12.308Z,63.20
2017-11-14T05:17:39.796Z,65.68
2017-11-14T05:20:07.333Z,67.22
2017-11-14T05:22:34.800Z,66.90
2017-11-14T05:25:02.271Z,63.50
2017-11-14T05:27:29.749Z,70.00
2017-11-14T05:29:57.240Z,68.37
2017-11-14T05:32:24.861Z,64.22
2017-11-14T05:34:52.337Z,66.60
2017-11-14T05:37:20.594Z,61.00
2017-11-14T05:39:48.080Z,67.20
2017-11-14T05:42:15.555Z,77.75
2017-11-14T05:44:43.040Z,74.78
2017-11-14T05:47:10.516Z,74.28
2017-11-14T05:49:37.982Z,67.60
2017-11-14T05:52:05.472Z,72.10
2017-11-14T05:54:32.931Z,65.82
2017-11-14T05:57:01.296Z,63.72
2017-11-14T05:59:28.751Z,68.50
2017-11-14T06:01:56.206Z,81.07
2017-11-14T06:04:23.691Z,68.93
2017-11-14T06:06:51.159Z,71.78
2017-11-14T06:09:19.402Z,63.17
2017-11-14T06:11:46.937Z,72.68
2017-11-14T06:14:15.176Z,74.05
2017-11-14T06:16:42.673Z,68.30
2017-11-14T06:19:10.170Z,73.15
2017-11-14T06:21:37.644Z,71.30
2017-11-14T06:24:05.201Z,89.03
2017-11-14T06:26:32.682Z,112.88
2017-11-14T06:29:00.159Z,70.43
2017-11-14T06:31:27.628Z,73.45
2017-11-14T06:33:55.177Z,68.47
2017-11-14T06:36:22.674Z,82.10
2017-11-14T06:38:50.934Z,83.70
2017-11-14T06:41:18.447Z,62.28
2017-11-14T06:43:45.912Z,73.45
2017-11-14T06:46:13.377Z,86.32
2017-11-14T06:48:41.023Z,73.15
2017-11-14T06:51:09.290Z,85.50
2017-11-14T06:53:36.758Z,86.10
2017-11-14T06:56:04.401Z,60.60
2017-11-14T06:58:31.875Z,82.07
2017-11-14T07:01:00.140Z,81.70
2017-11-14T07:03:27.624Z,73.15
2017-11-14T07:05:55.098Z,51.45
2017-11-14T07:08:22.702Z,53.08
2017-11-14T07:10:50.219Z,51.83
2017-11-14T07:13:17.774Z,58.72
2017-11-14T07:15:45.580Z,47.72
2017-11-14T07:18:13.217Z,75.45
2017-11-14T07:20:40.675Z,61.90
2017-11-14T07:23:08.288Z,56.47
2017-11-14T07:25:35.848Z,62.97
2017-11-14T07:28:03.352Z,44.75
2017-11-14T07:30:30.929Z,56.55
2017-11-14T07:32:58.390Z,65.78
2017-11-14T07:35:25.941Z,67.78
2017-11-14T07:37:54.199Z,45.95
2017-11-14T07:40:21.716Z,54.20
2017-11-14T07:42:49.370Z,64.97
2017-11-14T07:45:16.909Z,45.40
2017-11-14T07:47:44.433Z,52.15
2017-11-14T07:50:12.051Z,46.03
2017-11-14T07:52:39.549Z,45.67
2017-11-14T07:55:08.031Z,42.30
2017-11-14T07:57:35.506Z,40.20
2017-11-14T08:00:03.001Z,43.43
2017-11-14T08:02:30.519Z,31.03
2017-11-14T08:04:58.760Z,42.30
2017-11-14T08:07:26.840Z,34.23
2017-11-14T08:09:54.338Z,36.10
2017-11-14T08:12:22.668Z,37.73
2017-11-14T08:14:50.138Z,31.57
2017-11-14T08:17:17.617Z,35.47
2017-11-14T08:19:45.144Z,31.60
2017-11-14T08:22:12.690Z,29.97
2017-11-14T08:24:40.217Z,34.27
2017-11-14T08:27:08.476Z,30.70
2017-11-14T08:29:35.936Z,34.43
2017-11-14T08:32:03.631Z,31.73
2017-11-14T08:34:31.166Z,43.80
2017-11-14T08:36:58.632Z,34.47
2017-11-14T08:39:26.149Z,33.70
2017-11-14T08:41:53.642Z,30.80
2017-11-14T08:44:21.306Z,30.70
2017-11-14T08:46:49.603Z,32.43
2017-11-14T08:49:17.087Z,37.83
2017-11-14T08:51:44.559Z,34.43
2017-11-14T08:54:12.118Z,34.93
2017-11-14T08:56:39.601Z,28.50
2017-11-14T08:59:07.192Z,30.90
2017-11-14T09:01:34.660Z,31.13
2017-11-14T09:04:02.149Z,33.63
2017-11-14T09:06:29.618Z,33.67
2017-11-14T09:08:57.647Z,38.63
2017-11-14T09:11:25.246Z,37.93
2017-11-14T09:13:53.481Z,35.57
2017-11-14T09:16:20.956Z,28.87
2017-11-14T09:18:48.434Z,29.73
2017-11-14T09:21:15.895Z,31.07
2017-11-14T09:23:44.306Z,34.93
2017-11-14T09:26:12.585Z,30.60
2017-11-14T09:28:40.046Z,27.10
2017-11-14T09:31:07.565Z,32.60
2017-11-14T09:33:36.024Z,32.43
2017-11-14T09:36:03.515Z,39.20
2017-11-14T09:38:31.084Z,29.30
2017-11-14T09:40:58.674Z,30.53
2017-11-14T09:43:26.190Z,37.70
2017-11-14T09:45:53.690Z,30.60
2017-11-14T09:48:21.923Z,31.43
2017-11-14T09:50:50.315Z,31.37
2017-11-14T09:53:17.900Z,31.87
2017-11-14T09:55:45.376Z,31.60
2017-11-14T09:58:12.862Z,31.27
2017-11-14T10:00:40.339Z,31.97
2017-11-14T10:03:07.870Z,27.00
2017-11-14T10:05:35.339Z,35.37
2017-11-14T10:08:02.832Z,27.67
2017-11-14T10:10:30.314Z,35.83
2017-11-14T10:12:57.921Z,30.83
2017-11-14T10:15:25.412Z,31.80
2017-11-14T10:17:53.034Z,33.37
2017-11-14T10:20:20.640Z,30.27
2017-11-14T10:22:48.121Z,31.57
2017-11-14T10:25:15.638Z,32.87
2017-11-14T10:27:43.139Z,23.10
2017-11-14T10:30:10.741Z,27.43
2017-11-14T10:32:38.281Z,26.83
2017-11-14T10:35:06.595Z,32.33
2017-11-14T10:37:34.087Z,30.40
2017-11-14T10:40:01.604Z,34.37
2017-11-14T10:42:29.083Z,33.83
2017-11-14T10:44:56.580Z,34.17
2017-11-14T10:47:24.065Z,34.63
2017-11-14T10:49:51.548Z,34.63
2017-11-14T10:52:19.171Z,40.67
2017-11-14T10:54:46.885Z,33.63
2017-11-14T10:57:14.432Z,34.87
2017-11-14T10:59:41.968Z,36.93
2017-11-14T11:02:09.488Z,33.70
2017-11-14T11:04:36.952Z,35.60
2017-11-14T11:07:04.543Z,41.33
2017-11-14T11:09:32.023Z,32.60
2017-11-14T11:11:59.525Z,28.30
2017-11-14T11:14:27.687Z,38.43
2017-11-14T11:16:55.164Z,34.27
2017-11-14T11:19:23.523Z,35.87
2017-11-14T11:21:51.118Z,37.80
2017-11-14T11:24:18.621Z,33.67
2017-11-14T11:26:46.280Z,37.80
2017-11-14T11:29:13.872Z,40.53
2017-11-14T11:31:41.438Z,40.20
2017-11-14T11:34:09.064Z,34.73
2017-11-14T11:36:36.550Z,40.30
2017-11-14T11:39:10.306Z,38.13
2017-11-14T11:41:37.819Z,41.77
2017-11-14T11:44:05.287Z,49.50
2017-11-14T11:46:33.102Z,47.57
2017-11-14T11:49:00.625Z,41.30
2017-11-14T11:51:28.089Z,45.43
2017-11-14T11:53:55.571Z,45.73
2017-11-14T11:56:23.083Z,48.63
2017-11-14T11:58:50.733Z,44.70
2017-11-14T12:01:18.274Z,49.70
2017-11-14T12:03:45.801Z,40.10
2017-11-14T12:06:13.285Z,48.17
2017-11-14T12:08:40.777Z,45.60
2017-11-14T12:11:08.261Z,46.60
2017-11-14T12:13:35.732Z,47.23
2017-11-14T12:16:03.200Z,43.80
2017-11-14T12:18:30.739Z,39.33
2017-11-14T12:20:59.239Z,33.97
2017-11-14T12:23:27.487Z,34.30
2017-11-14T12:25:55.244Z,29.20
2017-11-14T12:28:22.924Z,33.20
2017-11-14T12:30:50.394Z,33.27
2017-11-14T12:33:18.632Z,28.60
2017-11-14T12:35:46.131Z,33.37
2017-11-14T12:38:13.604Z,50.80
2017-11-14T12:40:41.088Z,33.70
2017-11-14T12:43:08.542Z,30.33
2017-11-14T12:45:36.035Z,24.50
2017-11-14T12:48:03.746Z,12.23
2017-11-14T12:50:31.236Z,31.53
2017-11-14T12:52:58.742Z,41.47
2017-11-14T12:55:26.212Z,35.93
2017-11-14T12:57:53.847Z,31.70
2017-11-14T13:00:21.316Z,32.93
2017-11-14T13:02:49.589Z,37.30
2017-11-14T13:05:17.076Z,38.53
2017-11-14T13:07:44.602Z,39.60
2017-11-14T13:10:13.180Z,37.77
2017-11-14T13:12:41.650Z,35.30
2017-11-14T13:15:09.133Z,38.70
2017-11-14T13:17:36.618Z,38.67
2017-11-14T13:20:04.470Z,35.33
2017-11-14T13:22:31.925Z,39.07
2017-11-14T13:25:00.208Z,39.33
2017-11-14T13:27:27.692Z,34.57
2017-11-14T13:29:55.167Z,35.53
2017-11-14T13:32:22.749Z,34.10
2017-11-14T13:34:50.204Z,35.30
2017-11-14T13:37:17.705Z,41.17
2017-11-14T13:39:45.197Z,35.40
2017-11-14T13:42:12.792Z,36.73
2017-11-14T13:44:40.245Z,46.67
2017-11-14T13:47:07.723Z,36.47
2017-11-14T13:49:35.208Z,43.90
2017-11-14T13:52:02.722Z,36.70
2017-11-14T13:54:30.326Z,42.30
2017-11-14T13:56:58.742Z,35.13
2017-11-14T13:59:27.037Z,39.90
2017-11-14T14:01:54.547Z,37.50
2017-11-14T14:04:22.047Z,38.73
2017-11-14T14:06:49.528Z,42.53
2017-11-14T14:09:16.998Z,42.20
2017-11-14T14:11:44.511Z,42.10
2017-11-14T14:14:11.991Z,39.90
2017-11-14T14:16:39.499Z,42.40
2017-11-14T14:19:06.979Z,38.30
2017-11-14T14:21:34.569Z,42.90
2017-11-14T14:24:02.062Z,44.40
2017-11-14T14:26:30.492Z,48.33
2017-11-14T14:28:58.009Z,42.97
2017-11-14T14:31:25.497Z,46.10
2017-11-14T14:33:53.952Z,43.10
2017-11-14T14:36:21.450Z,43.10
2017-11-14T14:38:49.776Z,47.43
2017-11-14T14:41:17.250Z,50.20
2017-11-14T14:43:44.838Z,49.53
2017-11-14T14:46:12.352Z,48.23
2017-11-14T14:48:39.906Z,47.77
2017-11-14T14:51:07.381Z,61.87
2017-11-14T14:53:34.894Z,54.07
2017-11-14T14:56:02.393Z,51.37
2017-11-14T14:58:29.949Z,48.70
2017-11-14T15:00:57.610Z,60.50
2017-11-14T15:03:25.125Z,51.13
2017-11-14T15:05:52.621Z,52.87
2017-11-14T15:08:20.122Z,67.53
2017-11-14T15:10:47.620Z,55.87
2017-11-14T15:13:16.817Z,55.30
2017-11-14T15:15:44.315Z,67.00
2017-11-14T15:18:11.859Z,56.43
2017-11-14T15:20:39.323Z,60.20
2017-11-14T15:23:06.791Z,59.20
2017-11-14T15:25:34.304Z,55.10
2017-11-14T15:28:01.839Z,63.08
2017-11-14T15:30:29.376Z,61.20
2017-11-14T15:32:56.876Z,61.35
2017-11-14T15:35:24.353Z,61.57
2017-11-14T15:37:51.957Z,64.28
2017-11-14T15:40:19.516Z,64.47
2017-11-14T15:42:47.055Z,60.42
2017-11-14T15:45:14.613Z,62.70
2017-11-14T15:47:42.932Z,72.90
2017-11-14T15:50:11.169Z,60.30
2017-11-14T15:52:38.649Z,63.40
2017-11-14T15:55:06.147Z,53.43
2017-11-14T15:57:33.639Z,61.30
2017-11-14T16:00:01.122Z,48.90
2017-11-14T16:02:28.720Z,57.30
2017-11-14T16:04:56.186Z,57.10
2017-11-14T16:07:23.660Z,54.28
2017-11-14T16:09:51.146Z,55.17
2017-11-14T16:12:18.644Z,49.17
2017-11-14T16:14:46.435Z,56.67
2017-11-14T16:17:13.931Z,60.15
2017-11-14T16:19:41.523Z,69.20
2017-11-14T16:22:09.795Z,68.75
2017-11-14T16:24:37.440Z,67.78
2017-11-14T16:27:04.994Z,59.92
2017-11-14T16:29:32.581Z,62.00
2017-11-14T16:32:00.967Z,61.15
2017-11-14T16:34:28.448Z,55.60
2017-11-14T16:36:55.956Z,60.53
2017-11-14T16:39:24.225Z,62.33
2017-11-14T16:41:51.788Z,55.73
2017-11-14T16:44:19.419Z,60.72
2017-11-14T16:46:47.003Z,59.13
2017-11-14T16:49:14.499Z,71.50
2017-11-14T16:51:42.907Z,57.00
2017-11-14T16:54:11.164Z,72.05
2017-11-14T16:56:38.635Z,56.70
2017-11-14T16:59:06.195Z,51.97
2017-11-14T17:01:33.673Z,56.83
2017-11-14T17:04:01.385Z,66.35
2017-11-14T17:06:28.864Z,94.67
2017-11-14T17:08:56.376Z,74.78
2017-11-14T17:11:23.848Z,68.90
2017-11-14T17:13:51.331Z,114.43
2017-11-14T17:16:18.930Z,79.15
2017-11-14T17:18:46.443Z,140.15
2017-11-14T17:21:14.689Z,121.82
2017-11-14T17:23:42.177Z,79.28
2017-11-14T17:26:09.700Z,137.77
2017-11-14T17:28:37.201Z,106.07
2017-11-14T17:31:04.703Z,95.55
2017-11-14T17:33:32.185Z,88.40
2017-11-14T17:35:59.667Z,77.43
2017-11-14T17:38:27.249Z,74.03
2017-11-14T17:40:54.790Z,73.60
2017-11-14T17:43:22.310Z,81.07
2017-11-14T17:45:49.969Z,79.68
2017-11-14T17:48:18.346Z,106.37
2017-11-14T17:50:45.970Z,79.10
2017-11-14T17:53:14.290Z,75.68
2017-11-14T17:55:42.578Z,81.05
2017-11-14T17:58:10.110Z,89.10
2017-11-14T18:00:38.403Z,103.65
2017-11-14T18:03:05.912Z,52.00
2017-11-14T18:05:33.561Z,62.47
2017-11-14T18:08:01.053Z,65.18
2017-11-14T18:10:28.519Z,90.53
2017-11-14T18:12:55.998Z,95.60
2017-11-14T18:15:23.559Z,119.28
2017-11-14T18:17:51.807Z,89.50
2017-11-14T18:20:19.463Z,83.43
2017-11-14T18:22:47.737Z,78.65
2017-11-14T18:25:15.230Z,71.68
2017-11-14T18:27:43.502Z,52.35
2017-11-14T18:30:10.978Z,67.78
2017-11-14T18:32:38.483Z,76.65
2017-11-14T18:35:05.965Z,78.22
2017-11-14T18:37:33.602Z,68.78
2017-11-14T18:40:01.088Z,71.32
2017-11-14T18:42:28.565Z,109.07
2017-11-14T18:44:56.309Z,119.50
2017-11-14T18:47:23.789Z,96.53
2017-11-14T18:49:51.278Z,105.80
2017-11-14T18:52:19.652Z,90.38
2017-11-14T18:54:47.120Z,96.57
2017-11-14T18:57:14.612Z,96.93
2017-11-14T18:59:42.113Z,80.30
2017-11-14T19:02:09.588Z,96.07
2017-11-14T19:04:37.287Z,89.20
2017-11-14T19:07:04.809Z,84.70
2017-11-14T19:09:32.364Z,85.07
2017-11-14T19:11:59.864Z,83.93
2017-11-14T19:14:28.104Z,81.50
2017-11-14T19:16:55.606Z,83.18
2017-11-14T19:19:23.659Z,91.72
2017-11-14T19:21:51.225Z,81.33
2017-11-14T19:24:18.834Z,96.50
2017-11-14T19:26:46.294Z,72.00
2017-11-14T19:29:14.566Z,86.97
2017-11-14T19:31:42.422Z,81.53
2017-11-14T19:34:09.939Z,84.65
2017-11-14T19:36:38.242Z,81.97
2017-11-14T19:39:05.756Z,84.60
2017-11-14T19:41:34.046Z,73.20
2017-11-14T19:44:01.569Z,79.17
2017-11-14T19:46:29.069Z,77.20
2017-11-14T19:48:56.830Z,72.63
2017-11-14T19:51:24.313Z,67.90
2017-11-14T19:53:51.854Z,66.97
2017-11-14T19:56:19.414Z,68.97
2017-11-14T19:58:47.019Z,58.80
2017-11-14T20:01:15.332Z,67.22
2017-11-14T20:03:42.821Z,66.78
2017-11-14T20:06:10.410Z,75.87
2017-11-14T20:08:37.908Z,68.65
2017-11-14T20:11:06.165Z,71.82
2017-11-14T20:13:33.643Z,69.80
2017-11-14T20:16:01.161Z,85.20
2017-11-14T20:18:28.711Z,84.40
2017-11-14T20:20:56.371Z,68.20
2017-11-14T20:23:23.860Z,64.70
2017-11-14T20:25:51.378Z,69.43
2017-11-14T20:28:19.056Z,66.78
2017-11-14T20:30:47.357Z,71.93
2017-11-14T20:33:14.863Z,74.68
2017-11-14T20:35:42.351Z,67.23
2017-11-14T20:38:09.824Z,73.07
2017-11-14T20:40:37.343Z,77.62
2017-11-14T20:43:05.636Z,76.47
2017-11-14T20:45:33.896Z,67.37
2017-11-14T20:48:01.484Z,70.85
2017-11-14T20:50:28.943Z,73.97
2017-11-14T20:52:56.425Z,76.18
2017-11-14T20:55:23.957Z,73.80
2017-11-14T20:57:52.231Z,81.50
2017-11-14T21:00:19.798Z,79.97
2017-11-14T21:02:47.273Z,75.37
2017-11-14T21:05:14.794Z,66.45
2017-11-14T21:07:42.457Z,67.93
2017-11-14T21:10:09.974Z,73.10
2017-11-14T21:12:37.442Z,66.67
2017-11-14T21:15:04.973Z,68.00
2017-11-14T21:17:32.432Z,60.17
2017-11-14T21:20:00.665Z,63.67
2017-11-14T21:22:28.217Z,69.47
2017-11-14T21:24:55.754Z,70.40
2017-11-14T21:27:23.770Z,63.50
2017-11-14T21:29:51.252Z,62.95
2017-11-14T21:32:18.761Z,61.70
2017-11-14T21:34:47.030Z,57.03
2017-11-14T21:37:14.558Z,63.33
2017-11-14T21:39:42.093Z,62.07
2017-11-14T21:42:09.578Z,66.12
2017-11-14T21:44:37.114Z,62.27
2017-11-14T21:47:04.628Z,58.57
2017-11-14T21:49:32.119Z,64.93
2017-11-14T21:51:59.638Z,63.17
2017-11-14T21:54:27.120Z,61.03
2017-11-14T21:56:54.644Z,60.53
2017-11-14T21:59:22.128Z,68.97
2017-11-14T22:01:49.603Z,65.73
2017-11-14T22:04:17.956Z,55.37
2017-11-14T22:06:46.356Z,52.77
2017-11-14T22:09:13.832Z,56.30
2017-11-14T22:11:41.300Z,59.03
2017-11-14T22:14:08.766Z,54.00
2017-11-14T22:16:36.284Z,52.33
2017-11-14T22:19:03.813Z,58.90
2017-11-14T22:21:32.035Z,63.30
2017-11-14T22:23:59.527Z,61.93
2017-11-14T22:26:27.139Z,55.10
2017-11-14T22:28:54.687Z,60.30
2017-11-14T22:31:22.194Z,63.53
2017-11-14T22:33:49.654Z,55.30
2017-11-14T22:36:17.143Z,57.90
2017-11-14T22:38:44.691Z,66.73
2017-11-14T22:41:12.950Z,56.13
2017-11-14T22:43:40.604Z,55.80
2017-11-14T22:46:08.085Z,61.57
2017-11-14T22:48:35.613Z,63.07
2017-11-14T22:51:03.091Z,62.00
2017-11-14T22:53:30.593Z,67.93
2017-11-14T22:55:58.156Z,68.87
2017-11-14T22:58:25.638Z,71.20
2017-11-14T23:00:53.126Z,68.47
2017-11-14T23:03:20.597Z,65.00
2017-11-14T23:05:48.165Z,56.80
2017-11-14T23:08:15.662Z,61.47
2017-11-14T23:10:43.126Z,67.33
2017-11-14T23:13:10.582Z,64.30
2017-11-14T23:15:38.159Z,56.57
2017-11-14T23:18:06.393Z,60.80
2017-11-14T23:20:33.905Z,65.83
2017-11-14T23:23:01.389Z,60.23
2017-11-14T23:25:28.852Z,64.80
2017-11-14T23:27:56.324Z,60.90
2017-11-14T23:30:23.785Z,64.00
2017-11-14T23:32:52.018Z,64.67
2017-11-14T23:35:19.563Z,64.63
2017-11-14T23:37:47.977Z,73.23
2017-11-14T23:40:15.488Z,65.20
2017-11-14T23:42:43.024Z,64.35
2017-11-14T23:45:10.483Z,76.78
2017-11-14T23:47:37.963Z,71.95
2017-11-14T23:50:05.437Z,62.92
2017-11-14T23:52:32.943Z,62.55
2017-11-14T23:55:01.213Z,74.00
2017-11-14T23:57:28.733Z,72.80
2017-11-14T23:59:56.224Z,76.55
